ARKANSAS RIVER NAVIGATION REPORT
  LITTLE ROCK DISTRICT - U.S. ARMY CORPS OF ENGINEERS
  GENERATED: 22 OCT 2018 @  4:35
 
  NOTE: These data are not guaranteed to be valid or correct.
        RELEASES AND FLOWS ARE IN THOUSANDS OF CFS
  _____________________________________________________________________________
 
                  21OCT     21OCT      21OCT           22OCT          22OCT
                  @1200     @2400     AVERAGE      LATEST OBSERVED    PRECIP.
                  HOURS     HOURS      FLOW         DATA AND TIME     (7A-7A)
  _____________________________________________________________________________
 
  LD13 HW-ELEV    390.06    390.40                390.26  @   3:00      0.00
  LD13 TW-ELEV    382.75    381.41                381.33  @   3:00
  LD13 RELEASE     85.5      76.2      83.8        76.0   @   3:00
 
  OZA.L&D HW-ELEV 371.21    371.46                371.42  @   3:00      0.00
  OZA.L&D TW-ELEV 351.09    349.54                349.15  @   3:00
  OZA.L&D RELEASE 116.5     101.3     111.8        94.5   @   3:00
 
  DRD.L&D HW-ELEV 338.04    337.84                337.98  @   3:00      0.00
  DRD.L&D TW-ELEV 299.33    298.71                298.20  @   3:00
  DRD.L&D RELEASE 121.5     111.0     120.4       100.4   @   3:00
 
  LD09 HW-ELEV    284.51    284.45                284.35  @   3:00      0.00
  LD09 TW-ELEV    279.84    279.78                279.61  @   3:00
  LD09 RELEASE    112.3     112.3     112.5       106.5   @   3:00
 
  LD08 HW-ELEV    265.96    265.89                265.87  @   3:00      0.00
  LD08 TW-ELEV    265.36    265.28                265.29  @   3:00
  LD08 RELEASE    125.3     124.4     125.0       124.5   @   3:00
 
  LD07 HW-ELEV    248.20    248.20                248.20  @  12:00      0.00
  LD07 TW-ELEV    236.71    236.71                236.71  @  12:00
  LD07 RELEASE    129.6     129.6                 129.6   @  12:00
 
  LD06 HW-ELEV    230.66    230.66                230.66  @  18:00      0.00
  LD06 TW-ELEV    223.53    223.53                223.53  @  18:00
  LD06 RELEASE    124.1     124.1                 124.1   @  18:00
 
  LD05 HW-ELEV    212.36    212.63                212.77  @   3:00      0.00
  LD05 TW-ELEV    204.98    205.08                205.15  @   3:00
  LD05 RELEASE    120.2     123.0     120.1       123.5   @   3:00
 
  LD04 HW-ELEV    195.06    195.04                195.08  @   3:00       .01
  LD04 TW-ELEV    190.92    190.91                190.91  @   3:00
  LD04 RELEASE    124.8     125.0     124.9       125.3   @   3:00
 
  LD03 HW-ELEV    181.27    181.27                181.27  @  18:00      0.00
  LD03 TW-ELEV    178.67    178.67                178.67  @  18:00
  LD03 RELEASE    125.3     125.3                 125.3   @  18:00
 
  L02 HW-ELEV     162.14    162.07                162.10  @   3:00      0.00
 
  D02 HW-ELEV     161.36    161.36                161.40  @   3:00      0.00
  D02 TW-ELEV     144.88    145.12                144.62  @   3:00
  D02 RELEASE     129.3     129.6     127.3       129.3   @   3:00
 
  L01 TW-ELEV     141.90    141.90                141.90  @  19:00      0.00
 
  MPLD HW-ELEV    142.11    142.33                142.40  @   3:00      0.00	
  MPLD TW-ELEV    141.80    142.03                142.09  @   3:00
 
  WREC DIFF.        -.21      -.43                  -.50
  CLARENDON FLOW   19.44     19.31     19.42       19.26  @   3:00
  HELENA STAGE     30.55     30.60                 30.59  @   3:00
  CAIRO STAGE      37.75     37.20                 37.07  @   3:00
  _____________________________________________________________________________